createdAt,value
2022-10-12T00:00:58.623Z,11.40
2022-10-12T00:01:58.642Z,11.37
2022-10-12T00:02:58.588Z,11.45
2022-10-12T00:03:58.573Z,11.37
2022-10-12T00:04:59.526Z,11.41
2022-10-12T00:05:58.549Z,11.41
2022-10-12T00:06:58.568Z,11.36
2022-10-12T00:07:58.547Z,11.41
2022-10-12T00:08:58.534Z,11.47
2022-10-12T00:09:58.519Z,11.43
2022-10-12T00:10:58.507Z,11.40
2022-10-12T00:11:58.503Z,11.41
2022-10-12T00:12:58.490Z,11.41
2022-10-12T00:13:58.465Z,11.40
2022-10-12T00:14:58.454Z,11.32
2022-10-12T00:15:58.449Z,11.44
2022-10-12T00:16:58.442Z,11.40
2022-10-12T00:17:58.458Z,11.33
2022-10-12T00:18:58.419Z,11.40
2022-10-12T00:19:58.412Z,11.30
2022-10-12T00:20:58.391Z,11.30
2022-10-12T00:21:58.384Z,11.32
2022-10-12T00:22:58.377Z,11.27
2022-10-12T00:23:58.372Z,11.26
2022-10-12T00:24:58.369Z,11.26
2022-10-12T00:25:58.345Z,11.17
2022-10-12T00:26:58.339Z,11.17
2022-10-12T00:27:58.331Z,11.15
2022-10-12T00:28:58.365Z,11.17
2022-10-12T00:29:58.299Z,11.23
2022-10-12T00:30:58.292Z,11.22
2022-10-12T00:31:58.295Z,11.22
2022-10-12T00:32:58.274Z,11.22
2022-10-12T00:33:58.251Z,11.17
2022-10-12T00:34:58.242Z,11.23
2022-10-12T00:35:58.286Z,11.19
2022-10-12T00:36:58.236Z,11.22
2022-10-12T00:37:58.210Z,11.23
2022-10-12T00:38:58.225Z,11.27
2022-10-12T00:39:58.216Z,11.27
2022-10-12T00:40:58.220Z,11.30
2022-10-12T00:41:58.202Z,11.25
2022-10-12T00:42:58.157Z,11.23
2022-10-12T00:43:58.860Z,11.32
2022-10-12T00:44:58.154Z,11.26
2022-10-12T00:45:58.135Z,11.15
2022-10-12T00:46:58.118Z,11.33
2022-10-12T00:47:58.102Z,11.27
2022-10-12T00:48:58.103Z,11.25
2022-10-12T00:49:58.082Z,11.15
2022-10-12T00:50:58.089Z,11.26
2022-10-12T00:51:58.069Z,11.18
2022-10-12T00:52:58.052Z,11.23
2022-10-12T00:53:58.065Z,11.25
2022-10-12T00:54:58.078Z,11.25
2022-10-12T00:55:58.035Z,11.18
2022-10-12T00:56:58.015Z,11.22
2022-10-12T00:57:58.029Z,11.22
2022-10-12T00:58:57.996Z,11.18
2022-10-12T00:59:57.982Z,11.15
2022-10-12T01:00:58.003Z,11.15
2022-10-12T01:01:57.954Z,11.17
2022-10-12T01:02:57.946Z,11.11
2022-10-12T01:03:57.952Z,11.04
2022-10-12T01:04:57.956Z,10.99
2022-10-12T01:05:57.921Z,11.00
2022-10-12T01:06:57.927Z,11.17
2022-10-12T01:07:57.897Z,11.08
2022-10-12T01:08:57.877Z,11.10
2022-10-12T01:09:57.869Z,11.10
2022-10-12T01:10:57.872Z,11.12
2022-10-12T01:11:57.863Z,10.97
2022-10-12T01:12:57.861Z,11.04
2022-10-12T01:13:57.844Z,10.97
2022-10-12T01:14:57.815Z,10.99
2022-10-12T01:15:57.799Z,11.02
2022-10-12T01:16:57.797Z,10.90
2022-10-12T01:17:57.778Z,10.84
2022-10-12T01:18:57.780Z,10.93
2022-10-12T01:19:57.763Z,10.93
2022-10-12T01:20:57.740Z,10.89
2022-10-12T01:21:57.738Z,10.93
2022-10-12T01:22:57.725Z,10.82
2022-10-12T01:23:57.709Z,10.84
2022-10-12T01:24:57.716Z,10.90
2022-10-12T01:25:57.682Z,10.90
2022-10-12T01:26:57.692Z,10.84
2022-10-12T01:27:57.667Z,10.82
2022-10-12T01:28:57.670Z,10.84
2022-10-12T01:29:57.667Z,10.86
2022-10-12T01:30:57.638Z,10.82
2022-10-12T01:31:57.632Z,10.89
2022-10-12T01:32:57.618Z,10.81
2022-10-12T01:33:57.605Z,10.81
2022-10-12T01:34:57.602Z,10.78
2022-10-12T01:35:57.632Z,10.82
2022-10-12T01:36:57.570Z,10.78
2022-10-12T01:37:57.574Z,10.76
2022-10-12T01:38:57.549Z,10.76
2022-10-12T01:39:57.570Z,10.81
2022-10-12T01:40:57.546Z,10.74
2022-10-12T01:41:57.541Z,10.76
2022-10-12T01:42:57.510Z,10.90
2022-10-12T01:43:57.513Z,10.81
2022-10-12T01:44:57.506Z,10.84
2022-10-12T01:45:57.487Z,10.82
2022-10-12T01:46:57.496Z,10.84
2022-10-12T01:47:57.458Z,10.86
2022-10-12T01:48:57.451Z,10.86
2022-10-12T01:49:57.434Z,10.78
2022-10-12T01:50:57.440Z,10.64
2022-10-12T01:51:57.421Z,10.79
2022-10-12T01:52:57.422Z,10.81
2022-10-12T01:53:57.390Z,10.81
2022-10-12T01:54:57.388Z,10.67
2022-10-12T01:55:57.401Z,10.74
2022-10-12T01:56:57.388Z,10.69
2022-10-12T01:57:57.352Z,10.67
2022-10-12T01:58:57.333Z,10.67
2022-10-12T01:59:57.330Z,10.72
2022-10-12T02:00:57.383Z,10.67
2022-10-12T02:01:57.316Z,10.74
2022-10-12T02:02:57.292Z,10.71
2022-10-12T02:03:57.280Z,10.75
2022-10-12T02:04:57.272Z,10.74
2022-10-12T02:05:57.259Z,10.63
2022-10-12T02:06:57.269Z,10.71
2022-10-12T02:07:57.245Z,10.67
2022-10-12T02:08:57.224Z,10.68
2022-10-12T02:09:57.228Z,10.71
2022-10-12T02:10:57.225Z,10.71
2022-10-12T02:11:57.202Z,10.67
2022-10-12T02:12:57.193Z,10.63
2022-10-12T02:13:57.211Z,10.69
2022-10-12T02:14:57.171Z,10.63
2022-10-12T02:15:57.167Z,10.63
2022-10-12T02:16:57.152Z,10.61
2022-10-12T02:17:57.129Z,10.56
2022-10-12T02:18:57.121Z,10.54
2022-10-12T02:19:57.121Z,10.57
2022-10-12T02:20:57.105Z,10.64
2022-10-12T02:21:57.126Z,10.60
2022-10-12T02:22:57.077Z,10.57
2022-10-12T02:23:57.079Z,10.54
2022-10-12T02:24:57.070Z,10.57
2022-10-12T02:25:57.065Z,10.59
2022-10-12T02:26:57.038Z,10.51
2022-10-12T02:27:57.029Z,10.46
2022-10-12T02:28:57.020Z,10.48
2022-10-12T02:29:57.023Z,10.56
2022-10-12T02:30:56.998Z,10.51
2022-10-12T02:31:57.000Z,10.51
2022-10-12T02:32:56.988Z,10.53
2022-10-12T02:33:56.959Z,10.53
2022-10-12T02:34:56.953Z,10.53
2022-10-12T02:35:56.934Z,10.53
2022-10-12T02:36:56.943Z,10.57
2022-10-12T02:37:56.910Z,10.59
2022-10-12T02:38:56.908Z,10.57
2022-10-12T02:39:56.883Z,10.53
2022-10-12T02:40:56.884Z,10.48
2022-10-12T02:41:56.885Z,10.54
2022-10-12T02:43:11.896Z,10.49
2022-10-12T02:43:57.853Z,10.53
2022-10-12T02:44:56.837Z,10.53
2022-10-12T02:45:56.834Z,10.48
2022-10-12T02:46:56.835Z,10.51
2022-10-12T02:47:56.817Z,10.51
2022-10-12T02:48:56.809Z,10.42
2022-10-12T02:49:56.785Z,10.40
2022-10-12T02:50:56.780Z,10.42
2022-10-12T02:51:56.784Z,10.41
2022-10-12T02:52:56.747Z,10.44
2022-10-12T02:53:56.745Z,10.41
2022-10-12T02:54:56.738Z,10.42
2022-10-12T02:55:56.724Z,10.42
2022-10-12T02:56:56.718Z,10.34
2022-10-12T02:57:56.710Z,10.44
2022-10-12T02:58:56.692Z,10.42
2022-10-12T02:59:56.681Z,10.42
2022-10-12T03:00:56.780Z,10.42
2022-10-12T03:01:56.653Z,10.41
2022-10-12T03:02:56.669Z,10.31
2022-10-12T03:03:56.638Z,10.31
2022-10-12T03:04:56.644Z,10.42
2022-10-12T03:05:56.614Z,10.40
2022-10-12T03:06:56.606Z,10.26
2022-10-12T03:07:56.612Z,10.34
2022-10-12T03:08:56.595Z,10.33
2022-10-12T03:09:56.571Z,10.28
2022-10-12T03:10:56.568Z,10.28
2022-10-12T03:11:56.552Z,10.28
2022-10-12T03:12:56.557Z,10.34
2022-10-12T03:13:56.537Z,10.28
2022-10-12T03:14:56.525Z,10.31
2022-10-12T03:15:56.505Z,10.23
2022-10-12T03:16:56.518Z,10.23
2022-10-12T03:17:56.485Z,10.30
2022-10-12T03:18:56.497Z,10.23
2022-10-12T03:19:56.480Z,10.25
2022-10-12T03:20:56.477Z,10.28
2022-10-12T03:21:56.452Z,10.26
2022-10-12T03:22:56.441Z,10.28
2022-10-12T03:23:56.440Z,10.30
2022-10-12T03:24:56.407Z,10.30
2022-10-12T03:25:56.422Z,10.30
2022-10-12T03:26:56.393Z,10.23
2022-10-12T03:27:56.386Z,10.33
2022-10-12T03:28:56.526Z,10.26
2022-10-12T03:29:56.398Z,10.30
2022-10-12T03:30:56.365Z,10.26
2022-10-12T03:31:56.354Z,10.30
2022-10-12T03:32:56.322Z,10.30
2022-10-12T03:33:56.320Z,10.25
2022-10-12T03:34:56.305Z,10.22
2022-10-12T03:35:56.334Z,10.26
2022-10-12T03:36:56.297Z,10.31
2022-10-12T03:37:56.290Z,10.30
2022-10-12T03:38:56.272Z,10.26
2022-10-12T03:39:56.254Z,10.26
2022-10-12T03:40:56.233Z,10.28
2022-10-12T03:41:56.238Z,10.25
2022-10-12T03:42:56.238Z,10.19
2022-10-12T03:43:56.208Z,10.33
2022-10-12T03:44:56.192Z,10.26
2022-10-12T03:45:56.218Z,10.28
2022-10-12T03:46:56.200Z,10.28
2022-10-12T03:47:57.464Z,10.20
2022-10-12T03:48:56.157Z,10.23
2022-10-12T03:49:56.137Z,10.20
2022-10-12T03:50:56.135Z,10.19
2022-10-12T03:51:56.201Z,10.19
2022-10-12T03:52:56.124Z,10.20
2022-10-12T03:53:56.095Z,10.25
2022-10-12T03:54:56.098Z,10.25
2022-10-12T03:55:56.084Z,10.17
2022-10-12T03:56:56.089Z,10.22
2022-10-12T03:57:56.067Z,10.20
2022-10-12T03:58:56.076Z,10.15
2022-10-12T03:59:56.060Z,10.15
2022-10-12T04:00:56.049Z,10.09
2022-10-12T04:01:56.085Z,10.07
2022-10-12T04:02:56.010Z,10.12
2022-10-12T04:03:56.018Z,10.17
2022-10-12T04:04:55.974Z,10.16
2022-10-12T04:05:55.980Z,10.15
2022-10-12T04:06:55.987Z,10.12
2022-10-12T04:07:55.949Z,10.12
2022-10-12T04:08:55.979Z,10.19
2022-10-12T04:09:55.959Z,10.09
2022-10-12T04:10:55.913Z,10.05
2022-10-12T04:11:55.906Z,10.09
2022-10-12T04:12:55.905Z,10.05
2022-10-12T04:13:55.877Z,10.02
2022-10-12T04:14:55.876Z,10.02
2022-10-12T04:15:55.885Z,10.01
2022-10-12T04:16:55.855Z,10.12
2022-10-12T04:17:55.850Z,10.05
2022-10-12T04:18:55.830Z,10.12
2022-10-12T04:19:55.821Z,9.98
2022-10-12T04:20:55.809Z,9.98
2022-10-12T04:21:55.835Z,9.98
2022-10-12T04:22:55.783Z,10.02
2022-10-12T04:23:55.785Z,10.02
2022-10-12T04:24:55.777Z,10.10
2022-10-12T04:25:55.779Z,10.05
2022-10-12T04:26:55.772Z,10.01
2022-10-12T04:27:55.739Z,10.01
2022-10-12T04:28:55.805Z,9.99
2022-10-12T04:29:55.718Z,10.02
2022-10-12T04:30:55.700Z,10.05
2022-10-12T04:31:55.690Z,10.07
2022-10-12T04:32:55.713Z,9.99
2022-10-12T04:33:55.668Z,10.04
2022-10-12T04:34:55.665Z,10.07
2022-10-12T04:35:55.648Z,10.02
2022-10-12T04:36:55.667Z,10.10
2022-10-12T04:37:55.630Z,10.07
2022-10-12T04:39:00.651Z,10.02
2022-10-12T04:39:56.606Z,10.05
2022-10-12T04:40:55.630Z,9.99
2022-10-12T04:41:55.578Z,10.02
2022-10-12T04:42:55.592Z,9.97
2022-10-12T04:43:55.574Z,9.97
2022-10-12T04:44:55.549Z,10.05
2022-10-12T04:45:55.538Z,9.97
2022-10-12T04:46:55.523Z,9.98
2022-10-12T04:47:55.513Z,9.91
2022-10-12T04:48:55.519Z,9.95
2022-10-12T04:49:55.491Z,9.89
2022-10-12T04:50:55.488Z,9.84
2022-10-12T04:51:55.470Z,9.86
2022-10-12T04:52:55.472Z,9.79
2022-10-12T04:53:55.454Z,9.92
2022-10-12T04:54:55.451Z,9.83
2022-10-12T04:56:04.137Z,9.80
2022-10-12T04:56:55.415Z,9.79
2022-10-12T04:57:55.422Z,9.80
2022-10-12T04:58:55.382Z,9.80
2022-10-12T04:59:55.376Z,9.86
2022-10-12T05:00:55.370Z,9.83
2022-10-12T05:01:55.426Z,9.80
2022-10-12T05:02:55.349Z,9.83
2022-10-12T05:03:55.350Z,9.76
2022-10-12T05:04:55.340Z,9.77
2022-10-12T05:05:55.316Z,9.79
2022-10-12T05:06:55.305Z,9.79
2022-10-12T05:07:55.315Z,9.84
2022-10-12T05:08:55.294Z,9.79
2022-10-12T05:09:55.311Z,9.77
2022-10-12T05:10:55.315Z,9.80
2022-10-12T05:11:55.263Z,9.86
2022-10-12T05:12:55.240Z,9.83
2022-10-12T05:13:55.234Z,9.80
2022-10-12T05:14:55.224Z,9.80
2022-10-12T05:15:55.197Z,9.82
2022-10-12T05:16:55.195Z,9.74
2022-10-12T05:17:55.199Z,9.76
2022-10-12T05:18:55.177Z,9.77
2022-10-12T05:19:55.161Z,9.77
2022-10-12T05:20:57.160Z,9.83
2022-10-12T05:21:55.144Z,9.83
2022-10-12T05:22:55.131Z,9.80
2022-10-12T05:23:55.113Z,9.77
2022-10-12T05:24:55.137Z,9.77
2022-10-12T05:25:55.093Z,9.86
2022-10-12T05:26:55.095Z,9.80
2022-10-12T05:27:55.123Z,9.86
2022-10-12T05:28:55.119Z,9.86
2022-10-12T05:29:55.048Z,9.83
2022-10-12T05:30:55.259Z,9.77
2022-10-12T05:31:55.041Z,9.83
2022-10-12T05:32:55.028Z,9.73
2022-10-12T05:33:55.063Z,9.79
2022-10-12T05:34:55.086Z,9.77
2022-10-12T05:35:56.677Z,9.80
2022-10-12T05:36:54.988Z,9.77
2022-10-12T05:37:54.976Z,9.74
2022-10-12T05:38:54.955Z,9.73
2022-10-12T05:39:54.957Z,9.79
2022-10-12T05:41:00.072Z,9.80
2022-10-12T05:41:55.924Z,9.77
2022-10-12T05:42:54.905Z,9.76
2022-10-12T05:43:54.928Z,9.76
2022-10-12T05:44:54.898Z,9.84
2022-10-12T05:45:54.958Z,9.79
2022-10-12T05:46:54.887Z,9.87
2022-10-12T05:47:54.853Z,9.79
2022-10-12T05:48:54.841Z,9.76
2022-10-12T05:49:54.842Z,9.80
2022-10-12T05:50:54.840Z,9.82
2022-10-12T05:51:54.836Z,9.87
2022-10-12T05:52:54.809Z,9.82
2022-10-12T05:53:54.790Z,9.77
2022-10-12T05:54:54.800Z,9.80
2022-10-12T05:55:54.809Z,9.82
2022-10-12T05:56:54.754Z,9.83
2022-10-12T05:57:54.748Z,9.84
2022-10-12T05:58:54.736Z,9.80
2022-10-12T05:59:55.707Z,9.77
2022-10-12T06:00:54.743Z,9.77
2022-10-12T06:01:54.815Z,9.82
2022-10-12T06:02:54.699Z,9.83
2022-10-12T06:03:54.691Z,9.82
2022-10-12T06:04:54.677Z,9.91
2022-10-12T06:05:54.666Z,9.92
2022-10-12T06:06:54.646Z,9.91
2022-10-12T06:07:54.658Z,9.92
2022-10-12T06:08:54.662Z,9.91
2022-10-12T06:09:54.627Z,9.86
2022-10-12T06:10:54.612Z,9.86
2022-10-12T06:11:54.594Z,9.97
2022-10-12T06:12:54.580Z,9.86
2022-10-12T06:13:54.589Z,9.86
2022-10-12T06:14:54.567Z,9.95
2022-10-12T06:15:54.571Z,9.94
2022-10-12T06:16:54.663Z,9.95
2022-10-12T06:17:54.537Z,9.95
2022-10-12T06:18:54.566Z,9.95
2022-10-12T06:19:54.514Z,9.98
2022-10-12T06:21:21.113Z,9.95
2022-10-12T06:21:55.482Z,9.97
2022-10-12T06:22:54.473Z,10.04
2022-10-12T06:23:54.497Z,10.05
2022-10-12T06:24:54.490Z,9.99
2022-10-12T06:25:54.443Z,10.10
2022-10-12T06:26:56.094Z,10.01
2022-10-12T06:27:54.423Z,10.13
2022-10-12T06:28:54.490Z,10.01
2022-10-12T06:29:54.426Z,10.09
2022-10-12T06:30:54.387Z,10.26
2022-10-12T06:31:54.400Z,10.33
2022-10-12T06:32:54.364Z,10.41
2022-10-12T06:33:54.370Z,10.56
2022-10-12T06:34:54.347Z,10.57
2022-10-12T06:35:54.361Z,10.56
2022-10-12T06:36:57.149Z,10.49
2022-10-12T06:37:54.317Z,10.60
2022-10-12T06:38:54.303Z,10.61
2022-10-12T06:39:54.290Z,10.51
2022-10-12T06:40:54.292Z,10.49
2022-10-12T06:41:54.267Z,10.57
2022-10-12T06:42:58.463Z,10.54
2022-10-12T06:43:54.319Z,10.51
2022-10-12T06:44:54.237Z,10.54
2022-10-12T06:45:54.226Z,10.53
2022-10-12T06:46:54.223Z,10.61
2022-10-12T06:47:54.217Z,10.56
2022-10-12T06:48:54.208Z,10.61
2022-10-12T06:49:54.181Z,10.57
2022-10-12T06:50:54.185Z,10.59
2022-10-12T06:51:54.166Z,10.57
2022-10-12T06:52:54.154Z,10.54
2022-10-12T06:53:54.145Z,10.57
2022-10-12T06:54:54.161Z,10.60
2022-10-12T06:55:54.124Z,10.75
2022-10-12T06:56:58.511Z,10.69
2022-10-12T06:57:54.096Z,10.72
2022-10-12T06:58:54.097Z,10.72
2022-10-12T06:59:54.075Z,10.69
2022-10-12T07:00:54.080Z,10.71
2022-10-12T07:01:54.141Z,10.79
2022-10-12T07:02:54.042Z,10.78
2022-10-12T07:03:58.365Z,10.82
2022-10-12T07:04:55.017Z,10.90
2022-10-12T07:05:54.027Z,10.82
2022-10-12T07:06:54.003Z,10.93
2022-10-12T07:07:54.008Z,10.99
2022-10-12T07:08:53.975Z,11.07
2022-10-12T07:09:53.963Z,11.07
2022-10-12T07:10:57.131Z,11.12
2022-10-12T07:11:54.977Z,11.17
2022-10-12T07:12:53.934Z,11.15
2022-10-12T07:13:53.944Z,11.18
2022-10-12T07:14:53.939Z,11.19
2022-10-12T07:15:53.908Z,11.18
2022-10-12T07:16:55.463Z,11.18
2022-10-12T07:17:53.880Z,11.17
2022-10-12T07:18:53.869Z,11.17
2022-10-12T07:19:53.873Z,11.18
2022-10-12T07:20:53.855Z,11.23
2022-10-12T07:21:53.841Z,11.40
2022-10-12T07:22:53.858Z,11.37
2022-10-12T07:23:53.830Z,11.41
2022-10-12T07:24:53.802Z,11.45
2022-10-12T07:25:53.798Z,11.54
2022-10-12T07:26:53.790Z,11.45
2022-10-12T07:27:53.782Z,11.60
2022-10-12T07:28:53.845Z,11.66
2022-10-12T07:29:53.750Z,11.63
2022-10-12T07:30:53.761Z,11.63
2022-10-12T07:31:53.729Z,11.78
2022-10-12T07:32:53.719Z,11.84
2022-10-12T07:33:53.724Z,11.84
2022-10-12T07:34:53.704Z,11.94
2022-10-12T07:36:12.749Z,12.02
2022-10-12T07:36:59.491Z,11.99
2022-10-12T07:37:54.664Z,11.91
2022-10-12T07:38:53.675Z,11.97
2022-10-12T07:39:53.650Z,12.04
2022-10-12T07:40:53.629Z,11.97
2022-10-12T07:41:53.626Z,12.07
2022-10-12T07:43:14.809Z,12.07
2022-10-12T07:43:54.600Z,12.20
2022-10-12T07:44:53.589Z,12.28
2022-10-12T07:45:53.585Z,12.35
2022-10-12T07:46:53.593Z,12.45
2022-10-12T07:47:53.555Z,12.55
2022-10-12T07:48:53.552Z,12.50
2022-10-12T07:49:53.540Z,12.53
2022-10-12T07:50:53.533Z,12.58
2022-10-12T07:51:53.577Z,12.57
2022-10-12T07:52:53.511Z,12.55
2022-10-12T07:53:53.499Z,12.62
2022-10-12T07:54:53.490Z,12.75
2022-10-12T07:55:53.493Z,12.87
2022-10-12T07:56:53.461Z,12.90
2022-10-12T07:57:53.671Z,12.91
2022-10-12T07:58:53.446Z,13.00
2022-10-12T07:59:53.426Z,13.12
2022-10-12T08:00:53.447Z,13.19
2022-10-12T08:01:53.476Z,13.27
2022-10-12T08:02:53.418Z,13.33
2022-10-12T08:03:57.443Z,13.30
2022-10-12T08:04:53.375Z,13.39
2022-10-12T08:05:53.366Z,13.42
2022-10-12T08:06:53.356Z,13.50
2022-10-12T08:07:53.382Z,13.46
2022-10-12T08:08:53.338Z,13.54
2022-10-12T08:09:53.317Z,13.70
2022-10-12T08:10:53.309Z,13.78
2022-10-12T08:11:53.302Z,13.83
2022-10-12T08:12:53.316Z,13.96
2022-10-12T08:13:53.295Z,13.97
2022-10-12T08:14:53.350Z,14.07
2022-10-12T08:15:53.260Z,14.15
2022-10-12T08:16:53.243Z,14.20
2022-10-12T08:17:53.233Z,14.26
2022-10-12T08:18:53.240Z,14.37
2022-10-12T08:19:53.219Z,14.40
2022-10-12T08:20:53.208Z,14.41
2022-10-12T08:21:53.204Z,14.60
2022-10-12T08:22:53.185Z,14.63
2022-10-12T08:23:53.213Z,14.73
2022-10-12T08:24:53.155Z,14.82
2022-10-12T08:25:53.165Z,15.03
2022-10-12T08:26:54.445Z,15.15
2022-10-12T08:27:53.129Z,15.40
2022-10-12T08:28:53.192Z,16.09
2022-10-12T08:29:53.132Z,16.96
2022-10-12T08:30:53.114Z,18.18
2022-10-12T08:31:53.087Z,19.40
2022-10-12T08:32:53.070Z,20.26
2022-10-12T08:33:53.079Z,21.29
2022-10-12T08:34:53.055Z,22.14
2022-10-12T08:35:53.051Z,22.84
2022-10-12T08:36:53.053Z,23.80
2022-10-12T08:37:53.015Z,24.58
2022-10-12T08:38:53.018Z,25.44
2022-10-12T08:39:53.018Z,26.06
2022-10-12T08:40:52.998Z,26.66
2022-10-12T08:41:52.970Z,27.22
2022-10-12T08:42:52.961Z,27.47
2022-10-12T08:43:52.967Z,27.95
2022-10-12T08:44:52.937Z,28.45
2022-10-12T08:45:52.925Z,28.70
2022-10-12T08:46:52.930Z,29.08
2022-10-12T08:47:52.925Z,28.72
2022-10-12T08:48:52.909Z,28.15
2022-10-12T08:49:52.898Z,28.20
2022-10-12T08:50:52.917Z,27.96
2022-10-12T08:51:52.866Z,27.86
2022-10-12T08:52:52.872Z,27.25
2022-10-12T08:53:52.841Z,26.53
2022-10-12T08:54:52.843Z,25.95
2022-10-12T08:55:52.846Z,25.78
2022-10-12T08:56:52.817Z,25.44
2022-10-12T08:57:52.818Z,24.81
2022-10-12T08:58:52.805Z,24.13
2022-10-12T08:59:52.789Z,23.62
2022-10-12T09:00:52.769Z,23.02
2022-10-12T09:01:52.834Z,22.63
2022-10-12T09:02:52.758Z,22.36
2022-10-12T09:03:52.740Z,22.23
2022-10-12T09:04:52.733Z,22.53
2022-10-12T09:05:52.721Z,22.63
2022-10-12T09:06:52.719Z,22.38
2022-10-12T09:07:52.711Z,22.25
2022-10-12T09:08:52.695Z,22.04
2022-10-12T09:09:52.687Z,21.77
2022-10-12T09:10:52.667Z,21.61
2022-10-12T09:11:52.669Z,21.22
2022-10-12T09:12:52.681Z,20.97
2022-10-12T09:13:52.635Z,20.69
2022-10-12T09:14:52.629Z,20.40
2022-10-12T09:15:52.617Z,20.25
2022-10-12T09:16:52.607Z,20.02
2022-10-12T09:17:52.595Z,19.89
2022-10-12T09:18:52.613Z,19.47
2022-10-12T09:19:52.569Z,19.29
2022-10-12T09:20:52.560Z,19.07
2022-10-12T09:21:52.588Z,18.86
2022-10-12T09:22:52.540Z,18.81
2022-10-12T09:23:52.532Z,18.60
2022-10-12T09:24:52.550Z,18.58
2022-10-12T09:25:52.508Z,18.43
2022-10-12T09:26:52.501Z,18.34
2022-10-12T09:27:52.504Z,18.26
2022-10-12T09:28:52.525Z,18.01
2022-10-12T09:29:52.462Z,17.85
2022-10-12T09:30:52.468Z,17.80
2022-10-12T09:31:52.459Z,17.71
2022-10-12T09:32:52.429Z,17.72
2022-10-12T09:33:52.422Z,17.74
2022-10-12T09:34:52.407Z,17.83
2022-10-12T09:35:52.426Z,18.07
2022-10-12T09:36:52.386Z,18.55
2022-10-12T09:37:52.373Z,19.00
2022-10-12T09:38:52.372Z,19.76
2022-10-12T09:39:52.354Z,20.92
2022-10-12T09:40:52.343Z,22.17
2022-10-12T09:41:52.349Z,23.28
2022-10-12T09:42:52.330Z,23.69
2022-10-12T09:43:52.342Z,24.10
2022-10-12T09:44:52.305Z,24.43
2022-10-12T09:45:52.299Z,24.48
2022-10-12T09:46:52.277Z,24.32
2022-10-12T09:47:52.292Z,23.73
2022-10-12T09:48:52.261Z,23.08
2022-10-12T09:49:52.253Z,22.44
2022-10-12T09:50:52.238Z,21.98
2022-10-12T09:51:52.253Z,21.51
2022-10-12T09:52:52.212Z,21.03
2022-10-12T09:53:57.360Z,20.69
2022-10-12T09:54:53.212Z,20.28
2022-10-12T09:55:52.190Z,19.86
2022-10-12T09:56:52.175Z,19.30
2022-10-12T09:57:52.167Z,18.78
2022-10-12T09:58:52.179Z,18.49
2022-10-12T09:59:52.158Z,18.26
2022-10-12T10:00:52.139Z,18.19
2022-10-12T10:01:52.175Z,18.16
2022-10-12T10:02:52.142Z,18.26
2022-10-12T10:03:52.220Z,18.19
2022-10-12T10:04:52.106Z,17.97
2022-10-12T10:05:52.097Z,17.76
2022-10-12T10:06:52.063Z,17.60
2022-10-12T10:07:52.062Z,17.46
2022-10-12T10:08:52.048Z,17.54
2022-10-12T10:09:52.055Z,17.45
2022-10-12T10:10:52.034Z,17.48
2022-10-12T10:11:52.031Z,17.49
2022-10-12T10:12:51.996Z,17.54
2022-10-12T10:13:51.995Z,17.65
2022-10-12T10:14:51.979Z,17.44
2022-10-12T10:15:52.024Z,17.19
2022-10-12T10:16:51.977Z,16.94
2022-10-12T10:17:51.956Z,16.96
2022-10-12T10:18:51.964Z,16.83
2022-10-12T10:19:51.934Z,16.79
2022-10-12T10:20:51.911Z,16.81
2022-10-12T10:21:51.952Z,16.81
2022-10-12T10:22:51.889Z,16.94
2022-10-12T10:23:51.909Z,17.01
2022-10-12T10:24:52.238Z,17.06
2022-10-12T10:25:51.861Z,17.01
2022-10-12T10:26:51.851Z,16.99
2022-10-12T10:27:51.839Z,16.97
2022-10-12T10:28:51.869Z,17.06
2022-10-12T10:30:04.731Z,17.19
2022-10-12T10:30:52.809Z,17.16
2022-10-12T10:31:51.822Z,17.27
2022-10-12T10:32:51.792Z,17.27
2022-10-12T10:33:51.774Z,17.29
2022-10-12T10:34:51.783Z,17.22
2022-10-12T10:35:51.762Z,17.34
2022-10-12T10:36:51.743Z,17.29
2022-10-12T10:37:51.769Z,17.15
2022-10-12T10:38:51.726Z,17.22
2022-10-12T10:39:51.721Z,17.24
2022-10-12T10:40:51.705Z,17.34
2022-10-12T10:41:51.688Z,17.41
2022-10-12T10:42:51.685Z,17.44
2022-10-12T10:43:51.697Z,17.41
2022-10-12T10:44:51.675Z,17.42
2022-10-12T10:45:51.654Z,17.34
2022-10-12T10:46:51.639Z,17.30
2022-10-12T10:47:51.668Z,17.27
2022-10-12T10:48:52.184Z,17.29
2022-10-12T10:49:51.685Z,17.23
2022-10-12T10:50:51.603Z,17.06
2022-10-12T10:51:51.586Z,16.97
2022-10-12T10:52:51.585Z,16.86
2022-10-12T10:53:51.569Z,16.81
2022-10-12T10:54:51.545Z,16.81
2022-10-12T10:55:51.566Z,16.79
2022-10-12T10:56:51.525Z,16.87
2022-10-12T10:57:51.533Z,16.76
2022-10-12T10:58:51.518Z,16.97
2022-10-12T10:59:51.515Z,16.89
2022-10-12T11:00:51.482Z,16.79
2022-10-12T11:01:51.544Z,16.71
2022-10-12T11:02:51.466Z,16.66
2022-10-12T11:03:52.378Z,16.61
2022-10-12T11:04:51.436Z,16.69
2022-10-12T11:05:51.434Z,16.72
2022-10-12T11:06:51.422Z,16.76
2022-10-12T11:07:51.409Z,16.81
2022-10-12T11:08:51.398Z,16.78
2022-10-12T11:09:51.393Z,16.91
2022-10-12T11:10:51.373Z,17.01
2022-10-12T11:11:51.369Z,17.08
2022-10-12T11:12:51.348Z,17.11
2022-10-12T11:13:51.341Z,17.23
2022-10-12T11:14:51.350Z,17.41
2022-10-12T11:15:51.318Z,17.48
2022-10-12T11:16:51.315Z,17.48
2022-10-12T11:17:51.310Z,17.64
2022-10-12T11:18:51.283Z,17.64
2022-10-12T11:19:51.316Z,17.54
2022-10-12T11:20:51.272Z,17.63
2022-10-12T11:21:51.256Z,17.70
2022-10-12T11:22:51.281Z,17.78
2022-10-12T11:23:51.239Z,17.68
2022-10-12T11:24:51.215Z,17.57
2022-10-12T11:25:51.207Z,17.64
2022-10-12T11:26:51.206Z,17.51
2022-10-12T11:27:53.788Z,17.68
2022-10-12T11:28:51.246Z,17.60
2022-10-12T11:30:02.960Z,17.68
2022-10-12T11:30:52.163Z,17.78
2022-10-12T11:31:51.145Z,17.83
2022-10-12T11:32:51.136Z,17.83
2022-10-12T11:33:51.151Z,17.89
2022-10-12T11:34:51.147Z,18.03
2022-10-12T11:35:51.126Z,18.00
2022-10-12T11:37:17.709Z,18.07
2022-10-12T11:37:52.088Z,17.86
2022-10-12T11:38:51.078Z,17.63
2022-10-12T11:39:51.082Z,17.48
2022-10-12T11:41:31.175Z,17.49
2022-10-12T11:42:16.801Z,17.27
2022-10-12T11:42:52.032Z,17.19
2022-10-12T11:43:51.032Z,17.14
2022-10-12T11:44:51.005Z,17.19
2022-10-12T11:45:51.011Z,17.23
2022-10-12T11:46:50.981Z,17.41
2022-10-12T11:47:50.982Z,17.33
2022-10-12T11:48:50.964Z,17.51
2022-10-12T11:49:50.962Z,17.57
2022-10-12T11:50:50.946Z,17.51
2022-10-12T11:51:50.969Z,17.51
2022-10-12T11:52:50.924Z,17.46
2022-10-12T11:53:50.914Z,17.45
2022-10-12T11:54:50.917Z,17.31
2022-10-12T11:55:50.893Z,17.45
2022-10-12T11:56:50.873Z,17.57
2022-10-12T11:57:50.883Z,17.56
2022-10-12T11:59:06.260Z,17.51
2022-10-12T11:59:51.877Z,17.51
2022-10-12T12:00:50.830Z,17.49
2022-10-12T12:01:50.833Z,17.39
2022-10-12T12:02:50.810Z,17.46
2022-10-12T12:03:50.842Z,17.39
2022-10-12T12:04:51.064Z,17.45
2022-10-12T12:05:50.781Z,17.36
2022-10-12T12:06:50.764Z,17.22
2022-10-12T12:07:50.773Z,17.04
2022-10-12T12:08:50.777Z,17.09
2022-10-12T12:09:51.452Z,17.05
2022-10-12T12:10:50.745Z,17.05
2022-10-12T12:11:50.721Z,16.99
2022-10-12T12:12:50.704Z,16.99
2022-10-12T12:13:50.705Z,16.96
2022-10-12T12:14:50.700Z,17.06
2022-10-12T12:15:50.684Z,17.05
2022-10-12T12:16:50.665Z,17.01
2022-10-12T12:17:50.649Z,17.09
2022-10-12T12:18:51.221Z,17.11
2022-10-12T12:19:50.626Z,17.05
2022-10-12T12:20:50.635Z,17.26
2022-10-12T12:21:50.609Z,17.09
2022-10-12T12:22:50.593Z,17.15
2022-10-12T12:23:50.607Z,17.23
2022-10-12T12:24:50.593Z,17.44
2022-10-12T12:25:50.588Z,17.45
2022-10-12T12:26:50.546Z,17.44
2022-10-12T12:27:50.537Z,17.33
2022-10-12T12:28:50.601Z,17.26
2022-10-12T12:29:50.535Z,17.11
2022-10-12T12:30:50.530Z,17.04
2022-10-12T12:31:50.502Z,16.94
2022-10-12T12:32:50.498Z,17.06
2022-10-12T12:33:50.473Z,17.04
2022-10-12T12:34:50.471Z,17.04
2022-10-12T12:35:50.469Z,16.97
2022-10-12T12:36:50.460Z,17.06
2022-10-12T12:37:50.425Z,17.14
2022-10-12T12:38:50.511Z,17.15
2022-10-12T12:39:50.444Z,17.16
2022-10-12T12:40:50.418Z,17.01
2022-10-12T12:41:56.305Z,17.02
2022-10-12T12:42:51.377Z,17.01
2022-10-12T12:43:50.363Z,17.06
2022-10-12T12:44:50.348Z,17.01
2022-10-12T12:45:50.358Z,17.01
2022-10-12T12:46:50.332Z,17.06
2022-10-12T12:47:50.328Z,17.05
2022-10-12T12:48:50.308Z,17.09
2022-10-12T12:49:50.306Z,17.16
2022-10-12T12:50:50.287Z,17.27
2022-10-12T12:51:50.320Z,17.41
2022-10-12T12:52:50.274Z,17.56
2022-10-12T12:53:50.263Z,17.57
2022-10-12T12:54:53.250Z,17.64
2022-10-12T12:55:50.268Z,17.78
2022-10-12T12:56:50.228Z,17.82